logo dgac
Martes 28 de Mayo del 2024
Buscar por aerodromo o helipuerto
Ingrese nombre de aeródromo, localidad o designador OACI:
TAF: TAF SCDA 280440Z 2806/2906 28005KT 9999 OVC025 TN16/2810Z TX19/2818Z BECMG 2815/2817 21012KT FEW020 BECMG 2820/2822 OVC025 BECMG 2902/2904 11004KT
TAF del 28/05/2024 a las 04:40 UTC
Para mayor información visite www.meteochile.gob.cl
Período de validez: desde el 28 a las 06:00 UTC hasta el 29 a las 06:00 UTC
Viento: dirección 280 grados, velocidad 5 nudos
Visibilidad: 10 km o más
Nubes: Cubierto a 2500 pies sobre el nivel del aeródromo
Temperatura mínima: 16ºC el 28 a las 10:00 UTC
Temperatura máxima: 19ºC el 28 a las 18:00 UTC
Se espera un cambio entre las 15:00 UTC del 28 y las 17:00 UTC del 28, :
Viento: dirección 210 grados, velocidad 12 nudos
Nubes: Escasa nubosidad a 2000 pies sobre el nivel del aeródromo
Se espera un cambio entre las 20:00 UTC del 28 y las 22:00 UTC del 28, :
Nubes: Cubierto a 2500 pies sobre el nivel del aeródromo
Se espera un cambio entre las 02:00 UTC del 29 y las 04:00 UTC del 29, :
Viento: dirección 110 grados, velocidad 4 nudos